Terminal Aerodrome Forecast
Issued by NWS

Home | Current Version | Previous Version | Text Only | Print | Product List | Glossary On
Versions: 1 2 3 4 5 6 7 8 9 10 11 12 13 14 15 16 17 18 19 20 21 22 23 24 25 26 27 28 29 30 31 32 33 34 35 36 37 38 39 40 41 42 43 44 45
000
FTAK31 PANC 200533
TAFAAQ
TAF
PAAQ 200533Z 2006/2106 15010G20KT P6SM VCSH FEW008 FEW040 BKN070
      TEMPO 2006/2009 VRB06KT 5SM -SHRA BR BKN008
     FM201600 16009KT P6SM VCSH SCT040 BKN070=

USA.gov is the U.S. government's official web portal to all federal, state and local government web resources and services.